Time;durP1;ratioP1;P1;durP2;ratioP2;P2;SDS_P1;SDS_P2;PMS_P1;PMS_P2;Temp;Humidity;BMP_temperature;BMP_pressure;BME280_temperature;BME280_humidity;BME280_pressure;Samples;Min_cycle;Max_cycle;Signal;HPM_P1;HPM_P2
2021/03/12 00:00:42;;;;;;;2.50;1.10;;;;;;;6.30;77.40;98895.50;5064884;28;20225;-78
2021/03/12 00:03:09;;;;;;;3.67;1.33;;;;;;;6.21;76.49;98885.38;5068582;28;20202;-78
2021/03/12 00:05:43;;;;;;;2.03;1.00;;;;;;;6.08;77.23;98884.84;5065767;28;20252;-78
2021/03/12 00:08:09;;;;;;;3.43;1.80;;;;;;;6.13;77.80;98889.00;5070144;28;20224;-78
2021/03/12 00:10:35;;;;;;;3.20;2.23;;;;;;;6.22;78.46;98890.50;5072019;28;20212;-77
2021/03/12 00:13:02;;;;;;;2.90;2.30;;;;;;;6.24;78.45;98895.66;5069548;28;20241;-78
2021/03/12 00:15:29;;;;;;;4.70;2.70;;;;;;;6.22;78.21;98892.25;5066842;28;20312;-77
2021/03/12 00:17:55;;;;;;;3.80;2.50;;;;;;;6.31;78.46;98889.44;5070561;28;20221;-78
2021/03/12 00:20:25;;;;;;;4.13;2.90;;;;;;;6.29;77.49;98893.81;5065251;28;20211;-78
2021/03/12 00:22:51;;;;;;;7.90;3.07;;;;;;;6.07;78.61;98889.19;5068090;28;20203;-77
2021/03/12 00:25:20;;;;;;;7.73;3.00;;;;;;;6.17;78.61;98897.56;5067204;28;20338;-77
2021/03/12 00:27:47;;;;;;;6.47;2.67;;;;;;;6.10;78.70;98896.00;5068895;28;20212;-78
2021/03/12 00:30:14;;;;;;;5.00;3.00;;;;;;;6.15;78.10;98895.00;5063137;28;20195;-77
2021/03/12 00:32:41;;;;;;;6.00;2.90;;;;;;;6.13;78.09;98894.19;5064705;28;20290;-77
2021/03/12 00:35:08;;;;;;;5.47;3.27;;;;;;;6.21;77.82;98916.47;5060401;28;20287;-77
2021/03/12 00:37:35;;;;;;;3.33;2.63;;;;;;;6.27;77.64;98937.88;5068753;28;20205;-78
2021/03/12 00:40:02;;;;;;;3.03;1.57;;;;;;;6.20;76.50;98936.34;5082404;22;20201;-79
2021/03/12 00:42:28;;;;;;;3.30;1.80;;;;;;;6.02;77.64;98941.97;5092259;28;20234;-82
2021/03/12 00:44:54;;;;;;;2.20;1.23;;;;;;;5.71;78.06;98945.28;5099428;28;20220;-81
2021/03/12 00:47:20;;;;;;;2.13;1.30;;;;;;;5.30;78.97;98931.53;5089667;28;20226;-81
2021/03/12 00:49:46;;;;;;;4.20;1.60;;;;;;;5.25;79.24;98944.59;5100440;28;20195;-82
2021/03/12 00:52:12;;;;;;;3.53;1.10;;;;;;;5.26;79.37;98948.00;5093132;28;20248;-81
2021/03/12 00:54:38;;;;;;;1.83;1.23;;;;;;;5.09;80.44;98948.34;5089800;28;20191;-81
2021/03/12 00:57:05;;;;;;;3.17;1.57;;;;;;;5.03;81.17;98945.91;5093352;28;20232;-81
2021/03/12 00:59:31;;;;;;;7.07;1.30;;;;;;;5.04;81.33;98945.88;5088515;28;20611;-82
2021/03/12 01:01:57;;;;;;;3.03;1.83;;;;;;;5.20;82.11;98950.72;5091505;28;20226;-81
2021/03/12 01:04:23;;;;;;;3.27;1.60;;;;;;;5.25;80.94;98947.16;5098736;28;20254;-81
2021/03/12 01:06:49;;;;;;;3.07;1.63;;;;;;;5.30;80.20;98954.81;5094107;28;20212;-80
2021/03/12 01:09:16;;;;;;;3.03;2.23;;;;;;;5.46;80.45;98940.66;5093064;28;21082;-80
2021/03/12 01:11:41;;;;;;;6.00;2.30;;;;;;;5.65;80.20;98937.63;5090694;28;20237;-82
2021/03/12 01:14:07;;;;;;;7.17;3.93;;;;;;;5.78;80.46;98931.28;5079933;28;20204;-81
2021/03/12 01:16:33;;;;;;;6.03;2.80;;;;;;;5.81;80.38;98930.34;5090824;28;20208;-81
2021/03/12 01:18:59;;;;;;;12.37;3.90;;;;;;;5.89;79.99;98934.47;5084367;28;20207;-81
2021/03/12 01:21:26;;;;;;;9.07;4.00;;;;;;;5.97;79.22;98923.97;5082244;28;20231;-81
2021/03/12 01:23:52;;;;;;;8.80;4.80;;;;;;;6.06;78.36;98925.47;5088358;28;20576;-82
2021/03/12 01:26:18;;;;;;;8.50;4.10;;;;;;;6.12;77.92;98926.16;5081845;28;20576;-82
2021/03/12 01:28:44;;;;;;;6.43;5.17;;;;;;;5.97;79.02;98934.34;5083770;28;20206;-81
2021/03/12 01:31:10;;;;;;;7.03;5.20;;;;;;;5.82;80.67;98927.75;5090628;28;20223;-81
2021/03/12 01:33:35;;;;;;;6.17;5.00;;;;;;;5.71;81.68;98929.75;5084953;28;20208;-81
2021/03/12 01:36:01;;;;;;;6.70;5.03;;;;;;;5.63;82.16;98929.94;5086531;28;20239;-81
2021/03/12 01:38:28;;;;;;;6.83;5.63;;;;;;;5.61;82.88;98929.13;5090481;28;20211;-81
2021/03/12 01:40:54;;;;;;;8.00;6.40;;;;;;;5.64;82.32;98929.03;5086342;28;20638;-81
2021/03/12 01:43:21;;;;;;;8.03;6.10;;;;;;;5.69;81.49;98928.91;5089950;28;20233;-81
2021/03/12 01:45:49;;;;;;;8.53;6.00;;;;;;;5.78;81.78;98926.13;5094337;28;20774;-82
2021/03/12 01:48:17;;;;;;;8.43;6.13;;;;;;;5.78;80.71;98944.22;5093695;28;20207;-80
2021/03/12 01:50:45;;;;;;;10.50;6.80;;;;;;;5.82;80.50;98934.66;5082170;28;20221;-81
2021/03/12 01:53:11;;;;;;;7.37;6.20;;;;;;;5.83;79.72;98942.41;5093960;28;20197;-82
2021/03/12 01:55:39;;;;;;;7.53;6.60;;;;;;;5.88;79.71;98943.13;5080210;28;20567;-80
2021/03/12 01:58:06;;;;;;;7.30;6.27;;;;;;;5.88;78.82;98952.63;5096447;28;20203;-81
2021/03/12 02:00:32;;;;;;;8.93;7.43;;;;;;;5.91;79.06;98955.16;5080354;28;20223;-80
2021/03/12 02:02:59;;;;;;;7.83;6.93;;;;;;;5.91;78.90;98965.53;5095546;28;20203;-81
2021/03/12 02:05:25;;;;;;;8.13;6.50;;;;;;;5.80;79.78;98951.97;5086101;28;20238;-81
2021/03/12 02:07:51;;;;;;;7.40;4.67;;;;;;;5.65;78.29;98956.63;5096480;28;20198;-80
2021/03/12 02:10:21;;;;;;;7.00;5.00;;;;;;;5.53;79.61;98960.34;5084770;28;20233;-82
2021/03/12 02:12:55;;;;;;;8.10;5.47;;;;;;;5.49;79.70;98965.59;5087040;28;20664;-81
2021/03/12 02:15:27;;;;;;;7.13;6.33;;;;;;;5.47;80.62;98977.72;5079148;28;20203;-82
2021/03/12 02:17:59;;;;;;;8.50;6.80;;;;;;;5.41;81.40;98981.31;5080726;28;20204;-83
2021/03/12 02:20:51;;;;;;;8.53;7.40;;;;;;;5.51;82.73;98997.47;5087636;28;20275;-82
2021/03/12 02:23:31;;;;;;;12.33;8.77;;;;;;;5.51;83.24;98989.72;5086176;28;20198;-82
2021/03/12 02:26:02;;;;;;;9.27;7.00;;;;;;;5.43;83.54;98999.38;5084136;28;20211;-81
2021/03/12 02:28:31;;;;;;;6.63;5.17;;;;;;;5.22;84.20;98996.38;5086388;28;20666;-81
2021/03/12 02:30:58;;;;;;;5.73;4.43;;;;;;;4.88;84.95;99027.22;5081012;28;20230;-78
2021/03/12 02:33:27;;;;;;;4.93;4.53;;;;;;;4.71;86.74;99027.50;5087075;28;20197;-81
2021/03/12 02:35:55;;;;;;;4.47;4.07;;;;;;;4.45;87.57;99025.38;5085309;28;20202;-80
2021/03/12 02:38:24;;;;;;;5.70;5.07;;;;;;;4.45;87.96;99040.88;5084765;28;20248;-80
2021/03/12 02:40:50;;;;;;;5.17;4.30;;;;;;;4.43;87.61;99034.91;5083245;28;20274;-78
2021/03/12 02:43:17;;;;;;;4.47;3.77;;;;;;;4.37;87.09;99041.00;5096858;28;20582;-81
2021/03/12 02:45:44;;;;;;;3.87;2.13;;;;;;;4.31;86.64;99057.47;5087228;28;20281;-80
2021/03/12 02:48:12;;;;;;;2.57;2.13;;;;;;;4.39;86.15;99059.91;5093145;28;20198;-81
2021/03/12 02:50:38;;;;;;;1.90;1.80;;;;;;;4.47;85.97;99054.63;5079490;28;20313;-80
2021/03/12 02:53:06;;;;;;;2.03;1.83;;;;;;;4.46;85.68;99056.38;5091964;28;20194;-80
2021/03/12 02:55:32;;;;;;;4.37;2.70;;;;;;;4.44;85.89;99065.88;5085314;28;20197;-81
2021/03/12 02:57:58;;;;;;;5.40;2.80;;;;;;;4.44;85.75;99068.47;5088969;28;20198;-80
2021/03/12 03:00:25;;;;;;;3.63;3.30;;;;;;;4.48;85.52;99071.81;5083900;28;20250;-81
2021/03/12 03:02:52;;;;;;;4.83;2.80;;;;;;;4.50;85.17;99070.94;5094060;28;20762;-81
2021/03/12 03:05:18;;;;;;;5.30;3.60;;;;;;;4.52;84.96;99086.41;5081900;28;20220;-80
2021/03/12 03:07:47;;;;;;;3.73;2.83;;;;;;;4.53;85.50;99083.78;5093271;28;20228;-81
2021/03/12 03:10:14;;;;;;;6.63;3.43;;;;;;;4.53;85.96;99088.13;5093863;28;21595;-81
2021/03/12 03:12:43;;;;;;;4.07;2.83;;;;;;;4.60;85.68;99088.84;5093866;28;20574;-80
2021/03/12 03:15:10;;;;;;;3.97;3.03;;;;;;;4.68;85.17;99079.28;5084927;28;20199;-81
2021/03/12 03:17:38;;;;;;;2.80;2.40;;;;;;;4.56;84.90;99086.34;5093294;28;20257;-81
2021/03/12 03:20:10;;;;;;;4.07;2.77;;;;;;;4.54;84.27;99090.69;5086643;28;20217;-81
2021/03/12 03:22:37;;;;;;;3.93;2.30;;;;;;;4.51;84.58;99095.88;5085693;28;20209;-80
2021/03/12 03:25:03;;;;;;;3.57;2.80;;;;;;;4.52;84.56;99097.63;5093496;28;20229;-80
2021/03/12 03:27:29;;;;;;;3.23;2.60;;;;;;;4.46;84.42;99104.59;5077353;28;20228;-81
2021/03/12 03:29:55;;;;;;;3.23;2.93;;;;;;;4.52;84.65;99101.91;5079196;28;20656;-81
2021/03/12 03:32:21;;;;;;;3.00;2.77;;;;;;;4.49;85.11;99099.38;5080763;28;20652;-81
2021/03/12 03:34:47;;;;;;;4.40;2.97;;;;;;;4.45;84.94;99120.97;5077553;28;20728;-81
2021/03/12 03:37:14;;;;;;;4.77;3.40;;;;;;;4.48;84.76;99118.34;5083787;28;20216;-82
2021/03/12 03:39:40;;;;;;;4.33;3.20;;;;;;;4.43;84.84;99125.31;5081258;28;20213;-80
2021/03/12 03:42:07;;;;;;;4.40;3.40;;;;;;;4.46;84.81;99122.66;5085875;28;20240;-80
2021/03/12 03:44:35;;;;;;;5.33;4.30;;;;;;;4.52;84.55;99127.75;5084430;28;20226;-82
2021/03/12 03:47:03;;;;;;;6.00;3.53;;;;;;;4.57;83.99;99128.53;5083125;28;20609;-83
2021/03/12 03:49:34;;;;;;;5.87;3.90;;;;;;;4.58;84.04;99138.00;5078452;28;20252;-81
2021/03/12 03:52:01;;;;;;;5.10;4.60;;;;;;;4.60;84.44;99128.50;5087363;28;20247;-80
2021/03/12 03:54:30;;;;;;;5.73;4.10;;;;;;;4.64;83.62;99144.78;5079200;28;20201;-81
2021/03/12 03:56:57;;;;;;;6.70;4.43;;;;;;;4.70;83.67;99135.22;5082739;28;20206;-81
2021/03/12 03:59:24;;;;;;;5.00;4.17;;;;;;;4.68;84.29;99136.97;5090694;28;20687;-81
2021/03/12 04:01:50;;;;;;;5.47;4.30;;;;;;;4.65;84.54;99129.25;5086093;28;20229;-81
2021/03/12 04:04:16;;;;;;;9.93;4.60;;;;;;;4.66;84.39;99136.16;5080522;28;20227;-81
2021/03/12 04:06:44;;;;;;;5.87;5.27;;;;;;;4.71;83.99;99146.41;5085361;28;20208;-81
2021/03/12 04:09:13;;;;;;;6.00;4.90;;;;;;;4.70;84.22;99134.38;5080606;28;20209;-80
2021/03/12 04:11:40;;;;;;;6.43;4.90;;;;;;;4.76;83.48;99149.78;5084310;28;20732;-81
2021/03/12 04:14:07;;;;;;;5.47;4.70;;;;;;;4.72;84.03;99171.41;5082038;28;20212;-81
2021/03/12 04:16:33;;;;;;;5.13;4.20;;;;;;;4.56;84.81;99156.13;5084617;28;20205;-80
2021/03/12 04:19:01;;;;;;;4.40;4.00;;;;;;;4.24;85.97;99156.59;5080214;28;20255;-77
2021/03/12 04:21:27;;;;;;;5.17;4.30;;;;;;;4.13;86.54;99156.72;5094495;28;20299;-81
2021/03/12 04:23:55;;;;;;;6.53;4.20;;;;;;;4.03;87.81;99169.78;5084364;28;20557;-78
2021/03/12 04:26:21;;;;;;;6.13;5.00;;;;;;;4.00;88.25;99165.50;5085962;28;20254;-81
2021/03/12 04:28:48;;;;;;;4.73;4.17;;;;;;;4.07;87.82;99185.22;5086884;28;20200;-80
2021/03/12 04:31:14;;;;;;;4.23;3.83;;;;;;;4.03;88.04;99195.63;5084598;28;20588;-79
2021/03/12 04:33:41;;;;;;;4.87;4.47;;;;;;;4.03;88.54;99200.78;5085278;28;20197;-80
2021/03/12 04:36:08;;;;;;;5.17;3.23;;;;;;;3.92;88.88;99203.47;5080867;28;20659;-80
2021/03/12 04:38:34;;;;;;;4.53;3.97;;;;;;;3.96;88.91;99206.03;5088997;28;20197;-80
2021/03/12 04:41:01;;;;;;;5.10;4.70;;;;;;;3.98;88.42;99206.84;5079478;28;20224;-80
2021/03/12 04:43:27;;;;;;;6.57;5.07;;;;;;;3.93;88.46;99194.88;5095323;28;20208;-81
2021/03/12 04:45:53;;;;;;;5.80;5.23;;;;;;;3.98;88.60;99199.09;5085906;28;20737;-80
2021/03/12 04:48:20;;;;;;;7.93;6.43;;;;;;;4.04;88.49;99200.72;5090769;28;20204;-81
2021/03/12 04:50:46;;;;;;;7.07;5.83;;;;;;;4.14;87.35;99204.06;5077980;28;20224;-80
2021/03/12 04:53:12;;;;;;;6.93;6.10;;;;;;;4.18;87.55;99214.34;5093571;28;20197;-80
2021/03/12 04:55:39;;;;;;;6.37;5.77;;;;;;;4.30;86.99;99223.66;5078828;28;20206;-80
2021/03/12 04:58:05;;;;;;;4.73;4.33;;;;;;;4.27;86.58;99197.88;5092924;28;20730;-81
2021/03/12 05:00:31;;;;;;;3.07;2.80;;;;;;;4.24;85.38;99223.75;5090603;28;20221;-80
2021/03/12 05:02:59;;;;;;;5.50;3.37;;;;;;;4.17;85.78;99210.03;5093052;28;20196;-80
2021/03/12 05:05:25;;;;;;;3.37;2.57;;;;;;;4.02;85.30;99227.44;5079402;28;20633;-79
2021/03/12 05:07:53;;;;;;;4.70;2.83;;;;;;;4.02;85.54;99228.28;5093957;28;20680;-79
2021/03/12 05:10:19;;;;;;;3.80;2.80;;;;;;;4.04;86.02;99236.03;5080977;28;20220;-80
2021/03/12 05:12:45;;;;;;;4.97;4.17;;;;;;;4.04;86.34;99238.63;5092997;28;20209;-79
2021/03/12 05:15:12;;;;;;;4.47;3.47;;;;;;;4.02;86.67;99235.19;5095959;28;20199;-79
2021/03/12 05:17:38;;;;;;;4.20;3.90;;;;;;;3.97;87.00;99248.16;5093111;28;20261;-80
2021/03/12 05:20:06;;;;;;;5.43;4.13;;;;;;;4.01;87.41;99274.81;5087241;28;20639;-78
2021/03/12 05:22:32;;;;;;;4.53;3.77;;;;;;;3.94;87.84;99271.44;5092229;28;20230;-81
2021/03/12 05:24:58;;;;;;;3.63;3.33;;;;;;;3.69;87.79;99269.13;5085666;28;20221;-79
2021/03/12 05:27:23;;;;;;;4.87;3.30;;;;;;;3.49;89.18;99263.25;5087820;28;20198;-80
2021/03/12 05:29:49;;;;;;;5.30;3.83;;;;;;;3.36;89.51;99278.00;5079248;28;20667;-80
2021/03/12 05:32:15;;;;;;;4.70;3.50;;;;;;;3.15;89.56;99259.28;5080473;28;20300;-79
2021/03/12 05:34:41;;;;;;;3.77;3.07;;;;;;;3.09;90.84;99282.53;5085767;28;20195;-80
2021/03/12 05:37:08;;;;;;;4.83;3.20;;;;;;;3.05;90.58;99269.66;5081279;28;20201;-79
2021/03/12 05:39:34;;;;;;;4.13;3.33;;;;;;;3.09;91.10;99267.06;5085313;28;20205;-79
2021/03/12 05:42:00;;;;;;;4.40;3.40;;;;;;;3.12;91.16;99276.50;5083179;28;20234;-79
2021/03/12 05:44:26;;;;;;;3.63;2.93;;;;;;;3.09;91.24;99272.22;5087543;28;20237;-79
2021/03/12 05:46:52;;;;;;;3.23;2.83;;;;;;;3.08;91.00;99277.38;5081565;28;20574;-80
2021/03/12 05:49:19;;;;;;;3.83;3.50;;;;;;;3.13;90.61;99291.06;5090666;28;20196;-78
2021/03/12 05:51:45;;;;;;;5.30;4.80;;;;;;;3.25;91.00;99283.28;5083658;28;20319;-77
2021/03/12 05:54:12;;;;;;;5.00;4.60;;;;;;;3.37;90.55;99284.91;5080503;28;20200;-79
2021/03/12 05:56:39;;;;;;;6.37;5.10;;;;;;;3.42;90.05;99292.59;5084622;28;20209;-79
2021/03/12 05:59:05;;;;;;;5.83;4.87;;;;;;;3.50;89.82;99295.94;5084369;28;20201;-77
2021/03/12 06:01:31;;;;;;;4.83;4.43;;;;;;;3.56;88.76;99301.91;5078788;28;20271;-79
2021/03/12 06:03:57;;;;;;;4.67;4.23;;;;;;;3.65;87.60;99300.09;5080809;28;20198;-79
2021/03/12 06:06:26;;;;;;;4.60;3.73;;;;;;;3.68;87.19;99311.25;5079364;28;20224;-79
2021/03/12 06:08:52;;;;;;;6.70;6.00;;;;;;;3.70;87.28;99313.84;5082684;28;20212;-79
2021/03/12 06:11:19;;;;;;;4.77;3.80;;;;;;;3.70;87.38;99319.00;5080152;28;20220;-79
2021/03/12 06:13:52;;;;;;;5.00;3.80;;;;;;;3.67;87.05;99332.78;5082455;28;20204;-79
2021/03/12 06:16:23;;;;;;;5.00;3.40;;;;;;;3.66;86.59;99343.13;5080598;28;20204;-79
2021/03/12 06:19:10;;;;;;;3.80;3.40;;;;;;;3.69;86.80;99345.69;5091758;28;20225;-80
2021/03/12 06:21:37;;;;;;;6.03;3.27;;;;;;;3.73;87.14;99344.78;5087245;28;20228;-80
2021/03/12 06:24:24;;;;;;;4.37;3.23;;;;;;;3.72;86.44;99345.63;5085438;28;20205;-80
2021/03/12 06:26:51;;;;;;;3.47;3.17;;;;;;;3.72;85.69;99356.81;5085184;28;20205;-80
2021/03/12 06:29:17;;;;;;;4.43;3.03;;;;;;;3.66;85.89;99346.53;5084176;28;20882;-80
2021/03/12 06:31:51;;;;;;;3.93;3.10;;;;;;;3.66;86.03;99354.28;5085296;28;20227;-80
2021/03/12 06:34:17;;;;;;;4.23;3.40;;;;;;;3.57;86.56;99360.38;5087558;28;20198;-80
2021/03/12 06:36:44;;;;;;;4.13;3.30;;;;;;;3.57;87.23;99364.69;5082493;28;20230;-79
2021/03/12 06:39:10;;;;;;;6.00;4.00;;;;;;;3.58;87.36;99366.41;5092664;28;20201;-79
2021/03/12 06:41:37;;;;;;;5.13;4.23;;;;;;;3.53;87.96;99374.19;5079426;22;20292;-79
2021/03/12 06:44:25;;;;;;;4.70;4.13;;;;;;;3.58;88.20;99376.72;5053540;28;20212;-79
2021/03/12 06:46:51;;;;;;;4.40;3.97;;;;;;;3.69;88.28;99379.22;5048000;28;20206;-79
2021/03/12 06:49:17;;;;;;;5.50;4.93;;;;;;;3.79;88.57;99378.28;5052821;28;20257;-79
2021/03/12 06:51:58;;;;;;;5.83;4.90;;;;;;;3.90;88.35;99371.28;5045800;28;20269;-79
2021/03/12 06:54:26;;;;;;;7.23;6.03;;;;;;;3.98;87.99;99382.41;5039130;28;20211;-79
2021/03/12 06:56:52;;;;;;;11.57;10.57;;;;;;;4.09;87.42;99381.44;5041292;28;20205;-79
2021/03/12 06:59:29;;;;;;;10.90;9.30;;;;;;;4.20;86.69;99386.50;5040517;28;20206;-79
2021/03/12 07:02:00;;;;;;;7.27;6.53;;;;;;;4.16;85.27;99396.88;5040028;28;20236;-78
2021/03/12 07:04:27;;;;;;;7.60;6.87;;;;;;;4.21;85.11;99394.25;5043438;28;20198;-78
2021/03/12 07:06:53;;;;;;;9.60;5.27;;;;;;;4.27;84.09;99399.34;5041006;28;20225;-79
2021/03/12 07:09:21;;;;;;;7.37;5.93;;;;;;;4.31;84.53;99395.84;5042122;28;20223;-78
2021/03/12 07:11:53;;;;;;;5.60;5.07;;;;;;;4.34;83.22;99398.41;5039066;28;20593;-78
2021/03/12 07:14:19;;;;;;;12.63;5.37;;;;;;;4.36;82.99;99400.97;5041145;28;20199;-78
2021/03/12 07:16:46;;;;;;;7.23;5.00;;;;;;;4.36;82.75;99417.34;5042648;28;20231;-81
2021/03/12 07:19:12;;;;;;;8.10;5.80;;;;;;;4.39;83.43;99416.44;5043778;28;20199;-79
2021/03/12 07:21:41;;;;;;;7.90;5.53;;;;;;;4.44;83.74;99419.84;5041671;28;20234;-79
2021/03/12 07:24:10;;;;;;;6.20;5.47;;;;;;;4.44;83.81;99426.72;5044351;28;20208;-78
2021/03/12 07:26:41;;;;;;;6.13;5.53;;;;;;;4.52;83.84;99435.25;5041818;28;20208;-80
2021/03/12 07:29:11;;;;;;;8.97;5.20;;;;;;;4.54;82.76;99428.34;5046425;28;20198;-80
2021/03/12 07:31:39;;;;;;;9.77;5.60;;;;;;;4.60;83.33;99427.41;5043556;28;20218;-79
2021/03/12 07:34:12;;;;;;;6.03;5.43;;;;;;;4.62;82.70;99433.41;5046340;28;20255;-79
2021/03/12 07:36:44;;;;;;;6.70;5.80;;;;;;;4.52;82.30;99436.13;5043921;28;20206;-79
2021/03/12 07:39:14;;;;;;;5.47;4.87;;;;;;;4.52;82.34;99427.50;5046424;28;20199;-79
2021/03/12 07:41:42;;;;;;;5.57;4.93;;;;;;;4.57;82.19;99433.47;5040960;28;20234;-79
2021/03/12 07:44:12;;;;;;;6.10;5.53;;;;;;;4.60;82.46;99425.72;5042360;28;20211;-78
2021/03/12 07:46:38;;;;;;;8.60;6.97;;;;;;;4.66;81.71;99430.81;5040423;28;20203;-78
2021/03/12 07:49:33;;;;;;;8.13;6.30;;;;;;;4.72;81.92;99432.47;5047453;28;20199;-79
2021/03/12 07:52:00;;;;;;;7.33;6.40;;;;;;;4.78;81.18;99427.22;5036175;28;20235;-77
2021/03/12 07:54:45;;;;;;;8.40;7.13;;;;;;;4.84;81.33;99428.88;5042210;28;20201;-81
2021/03/12 07:57:12;;;;;;;6.27;5.80;;;;;;;4.88;79.51;99433.16;5038589;28;20215;-79
2021/03/12 07:59:59;;;;;;;9.37;7.87;;;;;;;4.92;79.65;99440.00;5050028;28;20198;-77
2021/03/12 08:02:57;;;;;;;7.40;6.80;;;;;;;5.01;79.16;99442.44;5053110;28;20280;-76
2021/03/12 08:05:30;;;;;;;6.83;6.10;;;;;;;5.06;78.43;99451.00;5050927;28;20237;-79
2021/03/12 08:07:56;;;;;;;6.50;5.80;;;;;;;5.14;78.61;99456.94;5047655;28;20216;-78
2021/03/12 08:10:23;;;;;;;7.37;5.73;;;;;;;5.26;78.43;99455.06;5055408;28;20586;-79
2021/03/12 08:12:50;;;;;;;6.23;5.60;;;;;;;5.33;77.75;99460.16;5039657;28;20227;-78
2021/03/12 08:15:18;;;;;;;6.17;4.90;;;;;;;5.34;75.72;99461.84;5051254;28;20630;-78
2021/03/12 08:17:45;;;;;;;9.43;5.20;;;;;;;5.37;76.47;99458.34;5045771;28;20207;-77
2021/03/12 08:20:32;;;;;;;5.17;4.43;;;;;;;5.41;75.63;99469.53;5025146;28;20199;-79
2021/03/12 08:22:59;;;;;;;5.70;4.70;;;;;;;5.44;75.14;99470.34;5032023;28;20252;-78
2021/03/12 08:25:47;;;;;;;9.53;4.63;;;;;;;5.44;75.05;99479.84;5025720;28;20228;-79
2021/03/12 08:28:34;;;;;;;5.67;4.43;;;;;;;5.45;72.59;99468.59;5021509;28;20203;-78
2021/03/12 08:31:03;;;;;;;8.33;4.07;;;;;;;5.50;72.03;99472.00;5020333;28;20208;-79
2021/03/12 08:33:41;;;;;;;6.23;4.10;;;;;;;5.54;74.00;99484.03;5025125;28;20208;-79
2021/03/12 08:36:08;;;;;;;7.57;3.80;;;;;;;5.58;74.21;99483.94;5030159;28;20207;-78
2021/03/12 08:38:37;;;;;;;6.57;4.00;;;;;;;5.63;73.55;99488.19;5034338;28;20199;-78
2021/03/12 08:41:06;;;;;;;6.43;4.83;;;;;;;5.63;72.26;99495.97;5025404;28;20229;-79
2021/03/12 08:43:32;;;;;;;5.80;5.20;;;;;;;5.70;73.56;99488.09;5025630;28;20203;-75
2021/03/12 08:46:01;;;;;;;5.17;4.67;;;;;;;5.73;72.30;99479.44;5025335;28;20275;-79
2021/03/12 08:48:29;;;;;;;7.00;5.03;;;;;;;5.77;72.43;99491.47;5031160;28;20674;-79
2021/03/12 08:50:57;;;;;;;10.27;4.70;;;;;;;5.79;71.71;99484.53;5028851;28;20645;-78
2021/03/12 08:53:25;;;;;;;9.07;4.57;;;;;;;5.81;70.16;99500.03;5027619;28;20210;-79
2021/03/12 08:55:53;;;;;;;8.87;5.47;;;;;;;5.89;72.15;99477.47;5027004;28;20209;-78
2021/03/12 08:58:21;;;;;;;6.40;5.27;;;;;;;5.98;70.51;99487.72;5032057;28;20225;-77
2021/03/12 09:00:49;;;;;;;5.70;4.97;;;;;;;6.03;70.34;99498.88;5034926;28;20216;-77
2021/03/12 09:03:17;;;;;;;5.43;4.87;;;;;;;6.05;69.77;99489.34;5029975;28;20222;-77
2021/03/12 09:05:44;;;;;;;6.73;5.90;;;;;;;6.10;71.70;99491.84;5033722;28;20230;-76
2021/03/12 09:08:10;;;;;;;10.93;6.73;;;;;;;6.14;70.40;99485.72;5034222;28;20207;-77
2021/03/12 09:10:37;;;;;;;7.93;7.23;;;;;;;6.26;69.96;99485.53;5035091;28;20205;-77
2021/03/12 09:13:03;;;;;;;8.17;7.47;;;;;;;6.35;69.34;99494.91;5028462;28;20252;-77
2021/03/12 09:15:29;;;;;;;9.97;7.37;;;;;;;6.33;69.06;99492.31;5034822;28;20204;-77
2021/03/12 09:17:56;;;;;;;8.77;7.90;;;;;;;6.36;68.72;99491.41;5032576;28;20213;-77
2021/03/12 09:20:23;;;;;;;8.60;7.80;;;;;;;6.46;70.11;99486.91;5034393;28;20209;-77
2021/03/12 09:22:53;;;;;;;11.47;8.17;;;;;;;6.32;67.52;99494.94;5032850;28;20229;-76
2021/03/12 09:25:26;;;;;;;8.07;7.33;;;;;;;6.30;68.71;99496.69;5034619;28;20723;-77
2021/03/12 09:28:08;;;;;;;7.97;7.20;;;;;;;6.41;69.24;99499.13;5033993;28;20209;-77
2021/03/12 09:30:37;;;;;;;8.03;7.20;;;;;;;6.54;69.96;99498.00;5034850;28;20197;-77
2021/03/12 09:33:04;;;;;;;6.57;5.97;;;;;;;6.53;68.63;99496.31;5031754;28;20268;-79
2021/03/12 09:35:30;;;;;;;6.83;5.20;;;;;;;6.50;67.11;99496.34;5040097;28;20201;-79
2021/03/12 09:37:57;;;;;;;8.30;5.63;;;;;;;6.57;67.58;99487.59;5039545;28;20205;-77
2021/03/12 09:40:35;;;;;;;5.77;5.17;;;;;;;6.58;69.30;99491.91;5036060;28;20206;-78
2021/03/12 09:43:01;;;;;;;7.20;5.43;;;;;;;6.69;68.99;99494.31;5032477;28;20229;-79
2021/03/12 09:45:28;;;;;;;5.50;4.37;;;;;;;6.66;66.44;99487.44;5040880;28;20225;-78
2021/03/12 09:47:54;;;;;;;4.40;4.00;;;;;;;6.66;65.94;99481.38;5040883;28;20217;-79
2021/03/12 09:50:25;;;;;;;4.87;4.10;;;;;;;6.66;65.95;99500.41;5040011;28;20229;-78
2021/03/12 09:52:55;;;;;;;6.53;4.10;;;;;;;6.74;66.45;99484.72;5040315;28;20223;-80
2021/03/12 09:55:22;;;;;;;5.50;4.67;;;;;;;6.85;65.97;99476.72;5040680;28;20202;-79
2021/03/12 09:57:48;;;;;;;4.47;4.07;;;;;;;6.94;65.26;99468.75;5039932;28;20210;-79
2021/03/12 10:00:21;;;;;;;4.47;4.07;;;;;;;6.86;64.08;99475.84;5040292;28;20201;-78
2021/03/12 10:02:54;;;;;;;4.80;3.83;;;;;;;6.90;64.29;99474.91;5043277;28;20596;-79
2021/03/12 10:05:20;;;;;;;5.37;4.23;;;;;;;7.08;66.35;99473.69;5045873;28;20273;-79
2021/03/12 10:07:47;;;;;;;4.80;3.83;;;;;;;7.12;65.37;99470.97;5045957;28;20565;-79
2021/03/12 10:10:20;;;;;;;4.67;4.17;;;;;;;7.23;65.81;99485.47;5047902;28;20206;-79
2021/03/12 10:12:47;;;;;;;4.53;3.97;;;;;;;7.32;67.23;99478.34;5042517;28;20225;-79
2021/03/12 10:15:16;;;;;;;3.90;3.50;;;;;;;7.30;65.73;99472.31;5049587;28;20231;-77
2021/03/12 10:17:42;;;;;;;4.87;3.80;;;;;;;7.26;64.62;99481.06;5043104;28;20253;-79
2021/03/12 10:20:20;;;;;;;5.00;3.00;;;;;;;7.07;62.81;99471.94;5040746;28;20209;-79
2021/03/12 10:22:48;;;;;;;3.40;3.00;;;;;;;7.12;64.53;99477.91;5037801;28;20229;-78
2021/03/12 10:25:16;;;;;;;3.77;2.93;;;;;;;7.18;62.17;99470.00;5031760;28;21277;-79
2021/03/12 10:27:45;;;;;;;6.03;3.30;;;;;;;7.32;63.90;99470.56;5037565;28;20259;-79
2021/03/12 10:30:13;;;;;;;5.40;3.10;;;;;;;7.47;63.93;99469.38;5035854;28;20231;-78
2021/03/12 10:32:40;;;;;;;7.60;3.80;;;;;;;7.71;64.80;99480.09;5036968;28;20279;-78
2021/03/12 10:35:20;;;;;;;3.87;3.00;;;;;;;7.86;63.94;99477.13;5037980;28;20235;-78
2021/03/12 10:37:46;;;;;;;3.87;2.87;;;;;;;7.71;60.72;99465.38;5038757;28;20213;-78
2021/03/12 10:40:13;;;;;;;6.27;2.80;;;;;;;7.85;62.17;99464.19;5039322;28;20202;-79
2021/03/12 10:42:39;;;;;;;5.57;2.17;;;;;;;8.09;61.93;99460.16;5037914;28;20244;-79
2021/03/12 10:45:08;;;;;;;4.57;2.30;;;;;;;8.19;59.74;99464.25;5038435;28;20766;-76
2021/03/12 10:47:35;;;;;;;5.57;2.30;;;;;;;8.20;58.82;99455.53;5035897;28;20214;-78
2021/03/12 10:50:20;;;;;;;6.53;2.40;;;;;;;8.18;58.97;99466.88;5037131;28;20221;-79
2021/03/12 10:52:46;;;;;;;5.40;2.43;;;;;;;8.13;58.88;99449.66;5038359;28;20225;-79
2021/03/12 10:55:13;;;;;;;5.37;2.57;;;;;;;8.30;58.91;99445.75;5038327;28;20202;-79
2021/03/12 10:57:41;;;;;;;4.63;2.03;;;;;;;8.23;56.64;99450.28;5037542;28;20220;-79
2021/03/12 11:00:13;;;;;;;6.23;2.53;;;;;;;8.42;59.65;99449.81;5038764;28;20202;-79
2021/03/12 11:02:39;;;;;;;4.07;1.80;;;;;;;8.47;56.96;99451.41;5037412;28;20240;-79
2021/03/12 11:05:06;;;;;;;4.57;2.20;;;;;;;8.33;56.19;99441.34;5038296;28;20251;-79
2021/03/12 11:07:33;;;;;;;4.07;1.97;;;;;;;8.31;55.76;99440.53;5038920;28;20705;-79
2021/03/12 11:09:59;;;;;;;6.87;2.10;;;;;;;8.35;57.20;99444.75;5030739;28;20224;-79
2021/03/12 11:12:26;;;;;;;6.07;2.27;;;;;;;8.38;56.62;99445.56;5033261;28;20234;-80
2021/03/12 11:14:52;;;;;;;7.37;1.77;;;;;;;8.35;56.54;99438.69;5034648;28;20198;-79
2021/03/12 11:17:17;;;;;;;7.10;1.97;;;;;;;8.47;57.41;99437.56;5028663;28;20763;-79
2021/03/12 11:19:44;;;;;;;3.93;1.60;;;;;;;8.68;55.68;99437.00;5035864;28;20232;-80
2021/03/12 11:22:09;;;;;;;4.20;2.47;;;;;;;8.84;56.61;99441.75;5030540;28;20225;-79
2021/03/12 11:24:36;;;;;;;6.77;1.67;;;;;;;8.93;55.85;99424.13;5036774;28;20263;-79
2021/03/12 11:27:04;;;;;;;6.33;2.20;;;;;;;9.00;55.53;99427.41;5027501;28;20202;-79
2021/03/12 11:29:32;;;;;;;6.17;2.17;;;;;;;8.80;55.53;99434.91;5033650;28;20209;-79
2021/03/12 11:31:59;;;;;;;7.50;2.20;;;;;;;8.74;54.10;99423.81;5030586;28;20273;-78
2021/03/12 11:34:25;;;;;;;5.67;1.87;;;;;;;8.68;54.30;99437.00;5025076;28;20202;-79
2021/03/12 11:36:51;;;;;;;4.60;2.10;;;;;;;8.92;54.39;99432.00;5032855;28;20206;-79
2021/03/12 11:39:16;;;;;;;4.40;1.80;;;;;;;9.06;54.58;99424.63;5025901;28;20202;-79
2021/03/12 11:41:43;;;;;;;3.47;1.40;;;;;;;9.12;53.10;99411.44;5031068;28;20230;-79
2021/03/12 11:44:09;;;;;;;3.03;1.33;;;;;;;8.73;51.88;99416.88;5018078;28;20206;-79
2021/03/12 11:46:35;;;;;;;2.63;1.20;;;;;;;9.03;52.83;99413.47;5024849;28;20312;-78